Acton Reynald, United Kingdom

9:16 AM GMT on February 06, 2016 (GMT +0000)
Shawbury Air Base | | Change Station
CLOSE
Current Station
Airport
Location: Shawbury,
Elevation: 249 ft
Nearby Weather Stations

Elev 249 ft 52.79 °N, 2.66 °W | Updated 26 minutes ago

Mostly Cloudy
Mostly Cloudy
43 °F
Feels Like 40 °F
N
5
Wind Variable Wind from ESE

Today
High -- | Low -- °F
--% Chance of Precip.
Yesterday
High -- | Low -- °F
Precip. -- in
Pressure 29.36 in
Visibility 4.3 miles
Clouds Few 300 ft
Mostly Cloudy 5000 ft
Windchill 40 °F
Dew Point 41 °F
Humidity 93%
Rainfall 0.00 in
Snow Depth Not available.
7:45 AM 5:04 PM
Waning Crescent, 6% visible
METAR EGOS 060850Z AUTO 11004KT 7000 UP FEW003/// BKN050/// 06/05 Q0994
Pressure 29.36 in
Visibility 4.3 miles
Clouds Few 300 ft
Mostly Cloudy 5000 ft
Windchill 40 °F
Dew Point 41 °F
Humidity 93%
Rainfall 0.00 in
Snow Depth Not available.
7:45 AM 5:04 PM
Waning Crescent, 6% visible
METAR EGOS 060850Z AUTO 11004KT 7000 UP FEW003/// BKN050/// 06/05 Q0994

10-Day Weather Forecast

Almanac

Astronomy

Feb. 06, 2016 Rise Set
Actual Time
Civil Twilight
Nautical Twilight
Astronomical Twilight
Moon
Length of Visible Light
Length of Day
Tomorrow will be .
, % of the Moon is Illuminated

Today's Extremes

Country Highs Country Lows

Community

WunderPhotos

Upload Photos

1,890,933 photos uploaded!

WunderBlog® & News

Nearby

Air Quality

  Air Quality AQ Index Pollutant
Not available.

Snow Depth

Station Depth Elevation

Earthquake Activity

City Distance Mag. Time & Date
Minimum magnitude displayed is 2.5.

Coastal Water Temperatures

Place Temperature

Stations

Nearby Weather Stations

Station Location Temp. Windchill Dew Point Humidity Wind Precip. Elev Updated Type